sensor_id;sensor_type;location;lat;lon;timestamp;P1;durP1;ratioP1;P2;durP2;ratioP2
9657;SDS011;4867;48.112;11.622;2023-04-03T00:00:44;10.83;;;9.70;;
9657;SDS011;4867;48.112;11.622;2023-04-03T00:03:11;12.10;;;10.80;;
9657;SDS011;4867;48.112;11.622;2023-04-03T00:05:39;11.73;;;10.23;;
9657;SDS011;4867;48.112;11.622;2023-04-03T00:08:07;11.47;;;10.27;;
9657;SDS011;4867;48.112;11.622;2023-04-03T00:10:36;11.60;;;10.00;;
9657;SDS011;4867;48.112;11.622;2023-04-03T00:13:05;12.53;;;9.97;;
9657;SDS011;4867;48.112;11.622;2023-04-03T00:15:32;11.03;;;9.83;;
9657;SDS011;4867;48.112;11.622;2023-04-03T00:18:01;11.40;;;10.20;;
9657;SDS011;4867;48.112;11.622;2023-04-03T00:20:29;10.63;;;9.47;;
9657;SDS011;4867;48.112;11.622;2023-04-03T00:22:58;11.50;;;10.40;;
9657;SDS011;4867;48.112;11.622;2023-04-03T00:25:26;11.63;;;10.53;;
9657;SDS011;4867;48.112;11.622;2023-04-03T00:27:53;12.33;;;10.10;;
9657;SDS011;4867;48.112;11.622;2023-04-03T00:30:21;10.63;;;9.47;;
9657;SDS011;4867;48.112;11.622;2023-04-03T00:32:49;11.23;;;10.03;;
9657;SDS011;4867;48.112;11.622;2023-04-03T00:35:18;12.27;;;10.00;;
9657;SDS011;4867;48.112;11.622;2023-04-03T00:37:47;10.83;;;9.73;;
9657;SDS011;4867;48.112;11.622;2023-04-03T00:40:15;11.57;;;10.47;;
9657;SDS011;4867;48.112;11.622;2023-04-03T00:42:43;13.37;;;9.90;;
9657;SDS011;4867;48.112;11.622;2023-04-03T00:48:32;10.50;;;9.50;;
9657;SDS011;4867;48.112;11.622;2023-04-03T00:51:06;10.07;;;9.07;;
9657;SDS011;4867;48.112;11.622;2023-04-03T00:53:49;11.30;;;10.20;;
9657;SDS011;4867;48.112;11.622;2023-04-03T00:56:21;10.57;;;9.57;;
9657;SDS011;4867;48.112;11.622;2023-04-03T00:58:54;10.93;;;9.90;;
9657;SDS011;4867;48.112;11.622;2023-04-03T01:01:28;13.00;;;9.90;;
9657;SDS011;4867;48.112;11.622;2023-04-03T01:03:58;10.23;;;9.23;;
9657;SDS011;4867;48.112;11.622;2023-04-03T01:06:28;11.70;;;9.43;;
9657;SDS011;4867;48.112;11.622;2023-04-03T01:09:04;10.07;;;8.47;;
9657;SDS011;4867;48.112;11.622;2023-04-03T01:11:32;10.70;;;9.60;;
9657;SDS011;4867;48.112;11.622;2023-04-03T01:14:01;10.93;;;9.93;;
9657;SDS011;4867;48.112;11.622;2023-04-03T01:16:29;11.03;;;9.23;;
9657;SDS011;4867;48.112;11.622;2023-04-03T01:19:00;11.07;;;9.87;;
9657;SDS011;4867;48.112;11.622;2023-04-03T01:26:26;12.37;;;10.13;;
9657;SDS011;4867;48.112;11.622;2023-04-03T01:28:54;11.53;;;9.87;;
9657;SDS011;4867;48.112;11.622;2023-04-03T01:31:26;10.87;;;9.77;;
9657;SDS011;4867;48.112;11.622;2023-04-03T01:33:59;11.83;;;10.33;;
9657;SDS011;4867;48.112;11.622;2023-04-03T01:36:29;11.23;;;10.00;;
9657;SDS011;4867;48.112;11.622;2023-04-03T01:38:58;10.23;;;9.23;;
9657;SDS011;4867;48.112;11.622;2023-04-03T01:41:28;10.13;;;9.00;;
9657;SDS011;4867;48.112;11.622;2023-04-03T01:44:03;10.30;;;9.20;;
9657;SDS011;4867;48.112;11.622;2023-04-03T01:46:31;10.50;;;9.40;;
9657;SDS011;4867;48.112;11.622;2023-04-03T01:48:58;10.73;;;9.63;;
9657;SDS011;4867;48.112;11.622;2023-04-03T01:51:26;11.50;;;9.33;;
9657;SDS011;4867;48.112;11.622;2023-04-03T01:53:53;10.77;;;9.50;;
9657;SDS011;4867;48.112;11.622;2023-04-03T01:56:20;10.73;;;9.67;;
9657;SDS011;4867;48.112;11.622;2023-04-03T01:58:49;13.80;;;10.67;;
9657;SDS011;4867;48.112;11.622;2023-04-03T02:01:17;10.87;;;9.77;;
9657;SDS011;4867;48.112;11.622;2023-04-03T02:03:44;10.90;;;9.90;;
9657;SDS011;4867;48.112;11.622;2023-04-03T02:06:11;10.53;;;9.53;;
9657;SDS011;4867;48.112;11.622;2023-04-03T02:08:39;10.80;;;9.00;;
9657;SDS011;4867;48.112;11.622;2023-04-03T02:11:06;11.33;;;10.00;;
9657;SDS011;4867;48.112;11.622;2023-04-03T02:13:34;10.10;;;9.10;;
9657;SDS011;4867;48.112;11.622;2023-04-03T02:16:11;9.87;;;8.97;;
9657;SDS011;4867;48.112;11.622;2023-04-03T02:18:39;10.10;;;9.10;;
9657;SDS011;4867;48.112;11.622;2023-04-03T02:21:07;10.40;;;9.40;;
9657;SDS011;4867;48.112;11.622;2023-04-03T02:23:34;10.23;;;9.13;;
9657;SDS011;4867;48.112;11.622;2023-04-03T02:26:04;10.90;;;9.53;;
9657;SDS011;4867;48.112;11.622;2023-04-03T02:28:33;9.47;;;8.53;;
9657;SDS011;4867;48.112;11.622;2023-04-03T02:31:02;9.53;;;8.53;;
9657;SDS011;4867;48.112;11.622;2023-04-03T02:33:30;9.47;;;8.10;;
9657;SDS011;4867;48.112;11.622;2023-04-03T02:35:58;9.27;;;8.37;;
9657;SDS011;4867;48.112;11.622;2023-04-03T02:38:26;9.23;;;8.33;;
9657;SDS011;4867;48.112;11.622;2023-04-03T02:40:59;8.07;;;7.37;;
9657;SDS011;4867;48.112;11.622;2023-04-03T02:43:33;11.53;;;7.73;;
9657;SDS011;4867;48.112;11.622;2023-04-03T02:46:01;8.60;;;7.70;;
9657;SDS011;4867;48.112;11.622;2023-04-03T02:48:28;8.20;;;7.40;;
9657;SDS011;4867;48.112;11.622;2023-04-03T02:50:56;8.07;;;7.27;;
9657;SDS011;4867;48.112;11.622;2023-04-03T02:53:23;7.93;;;6.67;;
9657;SDS011;4867;48.112;11.622;2023-04-03T02:55:53;7.20;;;6.50;;
9657;SDS011;4867;48.112;11.622;2023-04-03T02:58:21;7.20;;;6.60;;
9657;SDS011;4867;48.112;11.622;2023-04-03T03:00:48;6.97;;;6.27;;
9657;SDS011;4867;48.112;11.622;2023-04-03T03:03:15;8.03;;;6.30;;
9657;SDS011;4867;48.112;11.622;2023-04-03T03:05:43;6.80;;;5.97;;
9657;SDS011;4867;48.112;11.622;2023-04-03T03:08:10;6.70;;;5.90;;
9657;SDS011;4867;48.112;11.622;2023-04-03T03:10:38;6.87;;;6.13;;
9657;SDS011;4867;48.112;11.622;2023-04-03T03:13:06;6.33;;;5.73;;
9657;SDS011;4867;48.112;11.622;2023-04-03T03:15:33;6.43;;;5.83;;
9657;SDS011;4867;48.112;11.622;2023-04-03T03:18:01;6.60;;;5.90;;
9657;SDS011;4867;48.112;11.622;2023-04-03T03:20:29;6.67;;;5.73;;
9657;SDS011;4867;48.112;11.622;2023-04-03T03:22:57;6.17;;;5.57;;
9657;SDS011;4867;48.112;11.622;2023-04-03T03:25:24;6.20;;;5.60;;
9657;SDS011;4867;48.112;11.622;2023-04-03T03:27:54;6.07;;;5.47;;
9657;SDS011;4867;48.112;11.622;2023-04-03T03:30:21;6.10;;;5.50;;
9657;SDS011;4867;48.112;11.622;2023-04-03T03:32:49;6.47;;;5.60;;
9657;SDS011;4867;48.112;11.622;2023-04-03T03:35:16;5.33;;;4.80;;
9657;SDS011;4867;48.112;11.622;2023-04-03T03:37:44;7.50;;;5.37;;
9657;SDS011;4867;48.112;11.622;2023-04-03T03:40:11;6.87;;;5.43;;
9657;SDS011;4867;48.112;11.622;2023-04-03T03:42:39;5.77;;;5.23;;
9657;SDS011;4867;48.112;11.622;2023-04-03T03:45:07;5.93;;;5.13;;
9657;SDS011;4867;48.112;11.622;2023-04-03T03:47:35;5.27;;;4.87;;
9657;SDS011;4867;48.112;11.622;2023-04-03T03:50:02;4.93;;;4.33;;
9657;SDS011;4867;48.112;11.622;2023-04-03T03:52:30;5.33;;;4.83;;
9657;SDS011;4867;48.112;11.622;2023-04-03T03:54:57;7.67;;;4.83;;
9657;SDS011;4867;48.112;11.622;2023-04-03T03:57:25;5.53;;;4.93;;
9657;SDS011;4867;48.112;11.622;2023-04-03T03:59:55;6.07;;;4.83;;
9657;SDS011;4867;48.112;11.622;2023-04-03T04:02:22;5.53;;;4.90;;
9657;SDS011;4867;48.112;11.622;2023-04-03T04:04:51;5.63;;;5.00;;
9657;SDS011;4867;48.112;11.622;2023-04-03T04:07:19;5.60;;;4.93;;
9657;SDS011;4867;48.112;11.622;2023-04-03T04:09:46;5.77;;;5.17;;
9657;SDS011;4867;48.112;11.622;2023-04-03T04:12:14;5.33;;;4.80;;
9657;SDS011;4867;48.112;11.622;2023-04-03T04:14:42;5.60;;;5.10;;
9657;SDS011;4867;48.112;11.622;2023-04-03T04:17:13;5.60;;;5.10;;
9657;SDS011;4867;48.112;11.622;2023-04-03T04:19:41;5.50;;;5.00;;
9657;SDS011;4867;48.112;11.622;2023-04-03T04:22:08;5.53;;;5.00;;
9657;SDS011;4867;48.112;11.622;2023-04-03T04:24:36;5.77;;;5.10;;
9657;SDS011;4867;48.112;11.622;2023-04-03T04:27:05;5.50;;;5.00;;
9657;SDS011;4867;48.112;11.622;2023-04-03T04:29:33;7.93;;;5.13;;
9657;SDS011;4867;48.112;11.622;2023-04-03T04:32:05;6.10;;;5.50;;
9657;SDS011;4867;48.112;11.622;2023-04-03T04:34:32;5.30;;;4.87;;
9657;SDS011;4867;48.112;11.622;2023-04-03T04:37:00;5.23;;;4.73;;
9657;SDS011;4867;48.112;11.622;2023-04-03T04:39:28;7.30;;;4.97;;
9657;SDS011;4867;48.112;11.622;2023-04-03T04:41:57;5.67;;;5.07;;
9657;SDS011;4867;48.112;11.622;2023-04-03T04:44:28;5.83;;;5.30;;
9657;SDS011;4867;48.112;11.622;2023-04-03T04:46:55;5.67;;;5.00;;
9657;SDS011;4867;48.112;11.622;2023-04-03T04:49:22;5.40;;;4.90;;
9657;SDS011;4867;48.112;11.622;2023-04-03T04:51:50;5.63;;;4.97;;
9657;SDS011;4867;48.112;11.622;2023-04-03T04:54:23;6.43;;;5.50;;
9657;SDS011;4867;48.112;11.622;2023-04-03T04:56:51;5.53;;;5.03;;
9657;SDS011;4867;48.112;11.622;2023-04-03T04:59:19;6.87;;;5.10;;
9657;SDS011;4867;48.112;11.622;2023-04-03T05:01:49;5.73;;;4.40;;
9657;SDS011;4867;48.112;11.622;2023-04-03T05:04:16;5.53;;;4.90;;
9657;SDS011;4867;48.112;11.622;2023-04-03T05:06:49;5.80;;;5.10;;
9657;SDS011;4867;48.112;11.622;2023-04-03T05:09:21;5.00;;;4.50;;
9657;SDS011;4867;48.112;11.622;2023-04-03T05:11:50;4.97;;;4.57;;
9657;SDS011;4867;48.112;11.622;2023-04-03T05:14:21;6.30;;;4.73;;
9657;SDS011;4867;48.112;11.622;2023-04-03T05:16:49;5.00;;;4.50;;
9657;SDS011;4867;48.112;11.622;2023-04-03T05:19:21;5.63;;;4.90;;
9657;SDS011;4867;48.112;11.622;2023-04-03T05:21:50;4.77;;;4.27;;
9657;SDS011;4867;48.112;11.622;2023-04-03T05:24:17;5.37;;;4.23;;
9657;SDS011;4867;48.112;11.622;2023-04-03T05:26:45;5.13;;;4.63;;
9657;SDS011;4867;48.112;11.622;2023-04-03T05:29:13;5.30;;;4.63;;
9657;SDS011;4867;48.112;11.622;2023-04-03T05:31:41;5.20;;;4.70;;
9657;SDS011;4867;48.112;11.622;2023-04-03T05:34:11;6.43;;;4.63;;
9657;SDS011;4867;48.112;11.622;2023-04-03T05:36:39;6.13;;;4.50;;
9657;SDS011;4867;48.112;11.622;2023-04-03T05:39:08;5.33;;;4.83;;
9657;SDS011;4867;48.112;11.622;2023-04-03T05:41:40;5.80;;;4.70;;
9657;SDS011;4867;48.112;11.622;2023-04-03T05:44:07;6.10;;;4.53;;
9657;SDS011;4867;48.112;11.622;2023-04-03T05:46:34;5.73;;;5.13;;
9657;SDS011;4867;48.112;11.622;2023-04-03T05:49:05;5.53;;;4.80;;
9657;SDS011;4867;48.112;11.622;2023-04-03T05:51:35;5.17;;;4.67;;
9657;SDS011;4867;48.112;11.622;2023-04-03T05:54:24;5.80;;;5.10;;
9657;SDS011;4867;48.112;11.622;2023-04-03T05:57:06;6.40;;;5.03;;
9657;SDS011;4867;48.112;11.622;2023-04-03T05:59:34;5.70;;;5.10;;
9657;SDS011;4867;48.112;11.622;2023-04-03T06:02:03;5.37;;;4.87;;
9657;SDS011;4867;48.112;11.622;2023-04-03T06:04:30;5.50;;;5.00;;
9657;SDS011;4867;48.112;11.622;2023-04-03T06:06:58;7.07;;;5.10;;
9657;SDS011;4867;48.112;11.622;2023-04-03T06:09:27;6.57;;;5.83;;
9657;SDS011;4867;48.112;11.622;2023-04-03T06:11:56;5.37;;;4.87;;
9657;SDS011;4867;48.112;11.622;2023-04-03T06:14:28;5.17;;;4.67;;
9657;SDS011;4867;48.112;11.622;2023-04-03T06:16:55;6.27;;;5.20;;
9657;SDS011;4867;48.112;11.622;2023-04-03T06:19:23;6.33;;;5.10;;
9657;SDS011;4867;48.112;11.622;2023-04-03T06:21:54;6.67;;;5.07;;
9657;SDS011;4867;48.112;11.622;2023-04-03T06:24:23;5.83;;;5.27;;
9657;SDS011;4867;48.112;11.622;2023-04-03T06:26:52;5.53;;;4.80;;
9657;SDS011;4867;48.112;11.622;2023-04-03T06:29:20;6.97;;;5.30;;
9657;SDS011;4867;48.112;11.622;2023-04-03T06:31:47;5.97;;;5.37;;
9657;SDS011;4867;48.112;11.622;2023-04-03T06:34:16;8.07;;;5.70;;
9657;SDS011;4867;48.112;11.622;2023-04-03T06:36:44;5.60;;;5.10;;
9657;SDS011;4867;48.112;11.622;2023-04-03T06:39:13;6.60;;;5.17;;
9657;SDS011;4867;48.112;11.622;2023-04-03T06:41:43;6.47;;;5.07;;
9657;SDS011;4867;48.112;11.622;2023-04-03T06:44:10;6.37;;;5.23;;
9657;SDS011;4867;48.112;11.622;2023-04-03T06:46:39;6.03;;;5.03;;
9657;SDS011;4867;48.112;11.622;2023-04-03T06:49:07;6.10;;;5.20;;
9657;SDS011;4867;48.112;11.622;2023-04-03T06:51:34;6.00;;;4.90;;
9657;SDS011;4867;48.112;11.622;2023-04-03T06:54:03;5.90;;;4.70;;
9657;SDS011;4867;48.112;11.622;2023-04-03T06:56:32;8.00;;;5.50;;
9657;SDS011;4867;48.112;11.622;2023-04-03T06:58:59;5.70;;;4.70;;
9657;SDS011;4867;48.112;11.622;2023-04-03T07:01:28;5.00;;;4.50;;
9657;SDS011;4867;48.112;11.622;2023-04-03T07:03:56;5.00;;;4.50;;
9657;SDS011;4867;48.112;11.622;2023-04-03T07:06:24;6.13;;;5.30;;
9657;SDS011;4867;48.112;11.622;2023-04-03T07:08:54;5.17;;;4.53;;
9657;SDS011;4867;48.112;11.622;2023-04-03T07:11:22;5.30;;;4.80;;
9657;SDS011;4867;48.112;11.622;2023-04-03T07:13:49;6.20;;;4.83;;
9657;SDS011;4867;48.112;11.622;2023-04-03T07:16:18;6.80;;;5.03;;
9657;SDS011;4867;48.112;11.622;2023-04-03T07:18:45;5.30;;;4.80;;
9657;SDS011;4867;48.112;11.622;2023-04-03T07:21:13;5.23;;;4.73;;
9657;SDS011;4867;48.112;11.622;2023-04-03T07:23:40;5.93;;;5.33;;
9657;SDS011;4867;48.112;11.622;2023-04-03T07:26:07;5.77;;;5.17;;
9657;SDS011;4867;48.112;11.622;2023-04-03T07:28:35;6.63;;;5.30;;
9657;SDS011;4867;48.112;11.622;2023-04-03T07:31:04;5.90;;;5.30;;
9657;SDS011;4867;48.112;11.622;2023-04-03T07:33:35;5.77;;;5.17;;
9657;SDS011;4867;48.112;11.622;2023-04-03T07:36:06;7.17;;;6.47;;
9657;SDS011;4867;48.112;11.622;2023-04-03T07:38:36;5.53;;;5.00;;
9657;SDS011;4867;48.112;11.622;2023-04-03T07:41:04;6.43;;;4.90;;
9657;SDS011;4867;48.112;11.622;2023-04-03T07:43:32;7.07;;;5.70;;
9657;SDS011;4867;48.112;11.622;2023-04-03T07:46:00;7.23;;;6.07;;
9657;SDS011;4867;48.112;11.622;2023-04-03T07:48:29;5.80;;;5.27;;
9657;SDS011;4867;48.112;11.622;2023-04-03T07:50:59;5.97;;;5.47;;
9657;SDS011;4867;48.112;11.622;2023-04-03T07:53:28;6.67;;;5.20;;
9657;SDS011;4867;48.112;11.622;2023-04-03T07:55:56;7.43;;;5.30;;
9657;SDS011;4867;48.112;11.622;2023-04-03T07:58:26;6.10;;;5.50;;
9657;SDS011;4867;48.112;11.622;2023-04-03T08:00:53;9.67;;;5.30;;
9657;SDS011;4867;48.112;11.622;2023-04-03T08:03:21;8.90;;;6.13;;
9657;SDS011;4867;48.112;11.622;2023-04-03T08:05:49;6.53;;;5.80;;
9657;SDS011;4867;48.112;11.622;2023-04-03T08:08:18;7.67;;;6.30;;
9657;SDS011;4867;48.112;11.622;2023-04-03T08:10:49;6.63;;;5.80;;
9657;SDS011;4867;48.112;11.622;2023-04-03T08:13:20;7.07;;;5.97;;
9657;SDS011;4867;48.112;11.622;2023-04-03T08:15:49;6.87;;;5.77;;
9657;SDS011;4867;48.112;11.622;2023-04-03T08:18:17;7.40;;;5.80;;
9657;SDS011;4867;48.112;11.622;2023-04-03T08:20:48;6.30;;;5.70;;
9657;SDS011;4867;48.112;11.622;2023-04-03T08:23:15;7.57;;;5.60;;
9657;SDS011;4867;48.112;11.622;2023-04-03T08:25:45;7.53;;;5.30;;
9657;SDS011;4867;48.112;11.622;2023-04-03T08:28:13;6.90;;;5.93;;
9657;SDS011;4867;48.112;11.622;2023-04-03T08:30:40;6.47;;;5.87;;
9657;SDS011;4867;48.112;11.622;2023-04-03T08:33:09;6.63;;;6.03;;
9657;SDS011;4867;48.112;11.622;2023-04-03T08:35:40;7.03;;;5.60;;
9657;SDS011;4867;48.112;11.622;2023-04-03T08:38:10;7.50;;;5.70;;
9657;SDS011;4867;48.112;11.622;2023-04-03T08:40:38;7.10;;;5.43;;
9657;SDS011;4867;48.112;11.622;2023-04-03T08:43:28;5.90;;;5.40;;
9657;SDS011;4867;48.112;11.622;2023-04-03T08:46:07;5.77;;;5.10;;
9657;SDS011;4867;48.112;11.622;2023-04-03T08:48:41;7.30;;;5.90;;
9657;SDS011;4867;48.112;11.622;2023-04-03T08:51:11;6.37;;;5.20;;
9657;SDS011;4867;48.112;11.622;2023-04-03T08:53:43;6.03;;;5.23;;
9657;SDS011;4867;48.112;11.622;2023-04-03T08:56:34;6.77;;;5.20;;
9657;SDS011;4867;48.112;11.622;2023-04-03T08:59:07;6.33;;;5.73;;
9657;SDS011;4867;48.112;11.622;2023-04-03T09:01:40;7.20;;;5.37;;
9657;SDS011;4867;48.112;11.622;2023-04-03T09:04:13;5.50;;;5.00;;
9657;SDS011;4867;48.112;11.622;2023-04-03T09:06:45;5.40;;;4.93;;
9657;SDS011;4867;48.112;11.622;2023-04-03T09:23:32;6.90;;;5.23;;
9657;SDS011;4867;48.112;11.622;2023-04-03T09:26:19;5.40;;;4.90;;
9657;SDS011;4867;48.112;11.622;2023-04-03T09:28:55;5.33;;;4.83;;
9657;SDS011;4867;48.112;11.622;2023-04-03T09:31:29;5.40;;;4.70;;
9657;SDS011;4867;48.112;11.622;2023-04-03T09:34:10;5.07;;;4.57;;
9657;SDS011;4867;48.112;11.622;2023-04-03T09:36:52;5.50;;;4.93;;
9657;SDS011;4867;48.112;11.622;2023-04-03T09:39:22;4.83;;;4.30;;
9657;SDS011;4867;48.112;11.622;2023-04-03T09:42:05;6.57;;;4.93;;
9657;SDS011;4867;48.112;11.622;2023-04-03T09:44:44;5.90;;;5.17;;
9657;SDS011;4867;48.112;11.622;2023-04-03T09:47:34;6.50;;;5.30;;
9657;SDS011;4867;48.112;11.622;2023-04-03T09:52:43;5.23;;;4.73;;
9657;SDS011;4867;48.112;11.622;2023-04-03T09:55:19;5.07;;;4.67;;
9657;SDS011;4867;48.112;11.622;2023-04-03T09:57:54;4.20;;;3.80;;
9657;SDS011;4867;48.112;11.622;2023-04-03T10:00:27;5.03;;;4.37;;
9657;SDS011;4867;48.112;11.622;2023-04-03T10:02:58;4.87;;;4.47;;
9657;SDS011;4867;48.112;11.622;2023-04-03T10:05:33;5.20;;;4.70;;
9657;SDS011;4867;48.112;11.622;2023-04-03T10:10:42;4.93;;;4.43;;
9657;SDS011;4867;48.112;11.622;2023-04-03T10:13:15;4.63;;;4.23;;
9657;SDS011;4867;48.112;11.622;2023-04-03T10:21:10;5.93;;;5.33;;
9657;SDS011;4867;48.112;11.622;2023-04-03T10:29:36;5.97;;;5.37;;
9657;SDS011;4867;48.112;11.622;2023-04-03T10:35:00;7.03;;;5.03;;
9657;SDS011;4867;48.112;11.622;2023-04-03T10:37:44;5.30;;;4.80;;
9657;SDS011;4867;48.112;11.622;2023-04-03T10:40:39;5.83;;;4.80;;
9657;SDS011;4867;48.112;11.622;2023-04-03T10:43:36;5.30;;;4.30;;
9657;SDS011;4867;48.112;11.622;2023-04-03T10:54:41;5.80;;;4.87;;
9657;SDS011;4867;48.112;11.622;2023-04-03T10:57:16;5.57;;;4.83;;
9657;SDS011;4867;48.112;11.622;2023-04-03T10:59:45;5.50;;;4.73;;
9657;SDS011;4867;48.112;11.622;2023-04-03T11:02:25;5.90;;;5.10;;
9657;SDS011;4867;48.112;11.622;2023-04-03T11:05:06;5.63;;;5.07;;
9657;SDS011;4867;48.112;11.622;2023-04-03T11:07:45;6.53;;;4.80;;
9657;SDS011;4867;48.112;11.622;2023-04-03T11:10:17;5.30;;;4.53;;
9657;SDS011;4867;48.112;11.622;2023-04-03T11:12:56;5.90;;;4.50;;
9657;SDS011;4867;48.112;11.622;2023-04-03T11:15:29;4.77;;;4.10;;
9657;SDS011;4867;48.112;11.622;2023-04-03T11:18:04;6.03;;;4.10;;
9657;SDS011;4867;48.112;11.622;2023-04-03T11:20:37;4.97;;;4.47;;
9657;SDS011;4867;48.112;11.622;2023-04-03T11:23:53;4.77;;;4.27;;
9657;SDS011;4867;48.112;11.622;2023-04-03T11:26:16;3.93;;;3.53;;
9657;SDS011;4867;48.112;11.622;2023-04-03T11:28:52;5.27;;;4.13;;
9657;SDS011;4867;48.112;11.622;2023-04-03T11:37:01;5.50;;;3.43;;
9657;SDS011;4867;48.112;11.622;2023-04-03T11:39:37;4.20;;;3.53;;
9657;SDS011;4867;48.112;11.622;2023-04-03T11:58:18;4.90;;;3.60;;
9657;SDS011;4867;48.112;11.622;2023-04-03T12:00:51;4.47;;;3.17;;
9657;SDS011;4867;48.112;11.622;2023-04-03T12:24:27;5.70;;;3.53;;
9657;SDS011;4867;48.112;11.622;2023-04-03T12:35:04;3.77;;;2.60;;
9657;SDS011;4867;48.112;11.622;2023-04-03T12:40:31;3.77;;;3.37;;
9657;SDS011;4867;48.112;11.622;2023-04-03T12:46:04;4.17;;;2.80;;
9657;SDS011;4867;48.112;11.622;2023-04-03T12:51:21;2.80;;;2.50;;
9657;SDS011;4867;48.112;11.622;2023-04-03T12:54:01;3.57;;;2.80;;
9657;SDS011;4867;48.112;11.622;2023-04-03T12:56:32;3.90;;;2.80;;
9657;SDS011;4867;48.112;11.622;2023-04-03T13:01:58;4.57;;;2.57;;
9657;SDS011;4867;48.112;11.622;2023-04-03T13:04:27;4.40;;;4.00;;
9657;SDS011;4867;48.112;11.622;2023-04-03T13:06:57;4.73;;;4.23;;
9657;SDS011;4867;48.112;11.622;2023-04-03T13:09:27;3.40;;;2.80;;
9657;SDS011;4867;48.112;11.622;2023-04-03T13:12:00;5.27;;;3.10;;
9657;SDS011;4867;48.112;11.622;2023-04-03T13:14:29;3.40;;;2.40;;
9657;SDS011;4867;48.112;11.622;2023-04-03T13:16:58;2.80;;;2.40;;
9657;SDS011;4867;48.112;11.622;2023-04-03T13:19:46;4.93;;;3.50;;
9657;SDS011;4867;48.112;11.622;2023-04-03T13:22:24;5.40;;;3.00;;
9657;SDS011;4867;48.112;11.622;2023-04-03T13:25:00;3.83;;;3.03;;
9657;SDS011;4867;48.112;11.622;2023-04-03T13:27:31;3.17;;;2.47;;
9657;SDS011;4867;48.112;11.622;2023-04-03T13:29:59;3.33;;;2.67;;
9657;SDS011;4867;48.112;11.622;2023-04-03T13:32:29;3.70;;;2.23;;
9657;SDS011;4867;48.112;11.622;2023-04-03T13:34:58;3.93;;;2.50;;
9657;SDS011;4867;48.112;11.622;2023-04-03T13:37:53;4.27;;;2.10;;
9657;SDS011;4867;48.112;11.622;2023-04-03T13:40:23;5.30;;;2.77;;
9657;SDS011;4867;48.112;11.622;2023-04-03T13:43:02;3.57;;;2.40;;
9657;SDS011;4867;48.112;11.622;2023-04-03T13:45:33;3.87;;;2.47;;
9657;SDS011;4867;48.112;11.622;2023-04-03T13:50:51;2.60;;;2.20;;
9657;SDS011;4867;48.112;11.622;2023-04-03T13:53:22;3.30;;;2.37;;
9657;SDS011;4867;48.112;11.622;2023-04-03T13:55:55;3.27;;;2.10;;
9657;SDS011;4867;48.112;11.622;2023-04-03T13:58:32;3.30;;;2.33;;
9657;SDS011;4867;48.112;11.622;2023-04-03T14:03:40;2.00;;;1.80;;
9657;SDS011;4867;48.112;11.622;2023-04-03T14:06:14;2.60;;;2.27;;
9657;SDS011;4867;48.112;11.622;2023-04-03T14:08:43;2.47;;;2.20;;
9657;SDS011;4867;48.112;11.622;2023-04-03T14:11:15;2.93;;;2.60;;
9657;SDS011;4867;48.112;11.622;2023-04-03T14:13:49;2.60;;;2.40;;
9657;SDS011;4867;48.112;11.622;2023-04-03T14:16:18;2.90;;;2.40;;
9657;SDS011;4867;48.112;11.622;2023-04-03T14:18:48;2.90;;;2.23;;
9657;SDS011;4867;48.112;11.622;2023-04-03T14:21:17;3.27;;;2.10;;
9657;SDS011;4867;48.112;11.622;2023-04-03T14:23:46;2.30;;;2.10;;
9657;SDS011;4867;48.112;11.622;2023-04-03T14:26:15;3.10;;;2.60;;
9657;SDS011;4867;48.112;11.622;2023-04-03T14:28:45;2.70;;;2.30;;
9657;SDS011;4867;48.112;11.622;2023-04-03T14:31:13;6.97;;;5.57;;
9657;SDS011;4867;48.112;11.622;2023-04-03T14:33:42;2.93;;;2.10;;
9657;SDS011;4867;48.112;11.622;2023-04-03T14:38:40;4.00;;;3.43;;
9657;SDS011;4867;48.112;11.622;2023-04-03T14:41:09;3.73;;;2.53;;
9657;SDS011;4867;48.112;11.622;2023-04-03T14:43:43;2.67;;;2.00;;
9657;SDS011;4867;48.112;11.622;2023-04-03T14:48:47;4.27;;;3.30;;
9657;SDS011;4867;48.112;11.622;2023-04-03T14:51:15;2.57;;;2.17;;
9657;SDS011;4867;48.112;11.622;2023-04-03T14:53:42;3.20;;;1.93;;
9657;SDS011;4867;48.112;11.622;2023-04-03T14:56:19;2.23;;;2.03;;
9657;SDS011;4867;48.112;11.622;2023-04-03T14:58:53;2.60;;;2.13;;
9657;SDS011;4867;48.112;11.622;2023-04-03T15:01:24;2.43;;;1.93;;
9657;SDS011;4867;48.112;11.622;2023-04-03T15:03:51;2.50;;;2.07;;
9657;SDS011;4867;48.112;11.622;2023-04-03T15:06:19;7.50;;;2.80;;
9657;SDS011;4867;48.112;11.622;2023-04-03T15:08:47;2.40;;;2.00;;
9657;SDS011;4867;48.112;11.622;2023-04-03T15:11:15;3.03;;;1.83;;
9657;SDS011;4867;48.112;11.622;2023-04-03T15:13:42;2.30;;;2.00;;
9657;SDS011;4867;48.112;11.622;2023-04-03T15:16:12;3.27;;;2.27;;
9657;SDS011;4867;48.112;11.622;2023-04-03T15:18:46;2.87;;;2.00;;
9657;SDS011;4867;48.112;11.622;2023-04-03T15:21:14;3.40;;;2.07;;
9657;SDS011;4867;48.112;11.622;2023-04-03T15:23:42;3.53;;;1.90;;
9657;SDS011;4867;48.112;11.622;2023-04-03T15:26:09;3.57;;;2.07;;
9657;SDS011;4867;48.112;11.622;2023-04-03T15:28:39;4.60;;;2.50;;
9657;SDS011;4867;48.112;11.622;2023-04-03T15:31:08;2.83;;;2.10;;
9657;SDS011;4867;48.112;11.622;2023-04-03T15:33:36;2.60;;;2.10;;
9657;SDS011;4867;48.112;11.622;2023-04-03T15:36:04;2.53;;;2.20;;
9657;SDS011;4867;48.112;11.622;2023-04-03T15:38:33;4.23;;;2.30;;
9657;SDS011;4867;48.112;11.622;2023-04-03T15:41:00;3.90;;;2.20;;
9657;SDS011;4867;48.112;11.622;2023-04-03T15:43:29;4.30;;;2.70;;
9657;SDS011;4867;48.112;11.622;2023-04-03T15:45:58;5.70;;;3.90;;
9657;SDS011;4867;48.112;11.622;2023-04-03T15:48:26;4.60;;;3.00;;
9657;SDS011;4867;48.112;11.622;2023-04-03T15:50:54;4.60;;;2.70;;
9657;SDS011;4867;48.112;11.622;2023-04-03T15:53:24;5.53;;;2.30;;
9657;SDS011;4867;48.112;11.622;2023-04-03T15:55:52;3.20;;;2.10;;
9657;SDS011;4867;48.112;11.622;2023-04-03T15:58:20;2.50;;;2.20;;
9657;SDS011;4867;48.112;11.622;2023-04-03T16:00:47;2.30;;;1.90;;
9657;SDS011;4867;48.112;11.622;2023-04-03T16:03:16;2.30;;;2.10;;
9657;SDS011;4867;48.112;11.622;2023-04-03T16:05:45;3.10;;;1.90;;
9657;SDS011;4867;48.112;11.622;2023-04-03T16:08:13;2.00;;;1.90;;
9657;SDS011;4867;48.112;11.622;2023-04-03T16:10:41;3.23;;;2.10;;
9657;SDS011;4867;48.112;11.622;2023-04-03T16:13:08;2.60;;;2.13;;
9657;SDS011;4867;48.112;11.622;2023-04-03T16:15:35;2.90;;;1.90;;
9657;SDS011;4867;48.112;11.622;2023-04-03T16:18:04;2.87;;;2.07;;
9657;SDS011;4867;48.112;11.622;2023-04-03T16:20:32;4.13;;;2.40;;
9657;SDS011;4867;48.112;11.622;2023-04-03T16:23:01;4.70;;;2.40;;
9657;SDS011;4867;48.112;11.622;2023-04-03T16:25:28;2.70;;;2.13;;
9657;SDS011;4867;48.112;11.622;2023-04-03T16:27:57;4.43;;;2.20;;
9657;SDS011;4867;48.112;11.622;2023-04-03T16:30:25;3.93;;;2.27;;
9657;SDS011;4867;48.112;11.622;2023-04-03T16:32:53;2.20;;;2.00;;
9657;SDS011;4867;48.112;11.622;2023-04-03T16:35:22;2.50;;;2.13;;
9657;SDS011;4867;48.112;11.622;2023-04-03T16:37:49;4.43;;;2.80;;
9657;SDS011;4867;48.112;11.622;2023-04-03T16:40:17;4.40;;;2.80;;
9657;SDS011;4867;48.112;11.622;2023-04-03T16:42:44;3.10;;;2.10;;
9657;SDS011;4867;48.112;11.622;2023-04-03T16:45:12;3.83;;;2.23;;
9657;SDS011;4867;48.112;11.622;2023-04-03T16:47:41;2.67;;;2.07;;
9657;SDS011;4867;48.112;11.622;2023-04-03T16:50:09;3.17;;;2.67;;
9657;SDS011;4867;48.112;11.622;2023-04-03T16:52:37;2.93;;;2.40;;
9657;SDS011;4867;48.112;11.622;2023-04-03T16:55:04;2.63;;;2.37;;
9657;SDS011;4867;48.112;11.622;2023-04-03T16:57:32;2.90;;;2.30;;
9657;SDS011;4867;48.112;11.622;2023-04-03T17:00:00;2.93;;;2.10;;
9657;SDS011;4867;48.112;11.622;2023-04-03T17:02:27;3.70;;;2.20;;
9657;SDS011;4867;48.112;11.622;2023-04-03T17:04:54;4.73;;;2.57;;
9657;SDS011;4867;48.112;11.622;2023-04-03T17:07:22;3.87;;;2.40;;
9657;SDS011;4867;48.112;11.622;2023-04-03T17:09:50;3.10;;;2.80;;
9657;SDS011;4867;48.112;11.622;2023-04-03T17:12:20;4.03;;;2.80;;
9657;SDS011;4867;48.112;11.622;2023-04-03T17:14:48;4.37;;;2.70;;
9657;SDS011;4867;48.112;11.622;2023-04-03T17:17:15;4.47;;;2.40;;
9657;SDS011;4867;48.112;11.622;2023-04-03T17:19:47;4.47;;;2.40;;